sensor_id;sensor_type;location;lat;lon;timestamp;pressure;altitude;pressure_sealevel;temperature;humidity
18900;BME280;9582;52.018;6.306;2023-04-26T00:01:33;102416.94;;;2.69;100.00
18900;BME280;9582;52.018;6.306;2023-04-26T00:03:59;102425.53;;;2.68;100.00
18900;BME280;9582;52.018;6.306;2023-04-26T00:06:27;102422.88;;;2.62;100.00
18900;BME280;9582;52.018;6.306;2023-04-26T00:08:53;102428.84;;;2.58;100.00
18900;BME280;9582;52.018;6.306;2023-04-26T00:11:20;102422.69;;;2.48;100.00
18900;BME280;9582;52.018;6.306;2023-04-26T00:13:47;102431.19;;;2.40;100.00
18900;BME280;9582;52.018;6.306;2023-04-26T00:16:15;102430.22;;;2.34;100.00
18900;BME280;9582;52.018;6.306;2023-04-26T00:18:42;102423.25;;;2.27;100.00
18900;BME280;9582;52.018;6.306;2023-04-26T00:21:10;102422.38;;;2.25;100.00
18900;BME280;9582;52.018;6.306;2023-04-26T00:23:36;102427.38;;;2.16;100.00
18900;BME280;9582;52.018;6.306;2023-04-26T00:26:03;102420.47;;;2.14;100.00
18900;BME280;9582;52.018;6.306;2023-04-26T00:28:30;102410.91;;;2.08;100.00
18900;BME280;9582;52.018;6.306;2023-04-26T00:30:56;102420.28;;;2.03;100.00
18900;BME280;9582;52.018;6.306;2023-04-26T00:33:24;102413.31;;;1.96;100.00
18900;BME280;9582;52.018;6.306;2023-04-26T00:35:51;102408.91;;;1.91;100.00
18900;BME280;9582;52.018;6.306;2023-04-26T00:38:17;102405.41;;;1.86;100.00
18900;BME280;9582;52.018;6.306;2023-04-26T00:40:44;102407.88;;;1.80;100.00
18900;BME280;9582;52.018;6.306;2023-04-26T00:43:10;102412.09;;;1.76;100.00
18900;BME280;9582;52.018;6.306;2023-04-26T00:45:37;102409.47;;;1.73;100.00
18900;BME280;9582;52.018;6.306;2023-04-26T00:48:04;102402.59;;;1.72;100.00
18900;BME280;9582;52.018;6.306;2023-04-26T00:50:32;102398.22;;;1.68;100.00
18900;BME280;9582;52.018;6.306;2023-04-26T00:53:01;102399.06;;;1.67;100.00
18900;BME280;9582;52.018;6.306;2023-04-26T00:55:28;102390.44;;;1.65;100.00
18900;BME280;9582;52.018;6.306;2023-04-26T00:57:55;102392.22;;;1.69;100.00
18900;BME280;9582;52.018;6.306;2023-04-26T01:00:21;102391.31;;;1.65;100.00
18900;BME280;9582;52.018;6.306;2023-04-26T01:02:48;102386.97;;;1.63;100.00
18900;BME280;9582;52.018;6.306;2023-04-26T01:05:15;102386.03;;;1.59;100.00
18900;BME280;9582;52.018;6.306;2023-04-26T01:07:45;102383.41;;;1.56;100.00
18900;BME280;9582;52.018;6.306;2023-04-26T01:10:11;102379.91;;;1.53;100.00
18900;BME280;9582;52.018;6.306;2023-04-26T01:12:38;102347.25;;;1.52;100.00
18900;BME280;9582;52.018;6.306;2023-04-26T01:15:06;102340.34;;;1.51;100.00
18900;BME280;9582;52.018;6.306;2023-04-26T01:17:33;102334.31;;;1.50;100.00
18900;BME280;9582;52.018;6.306;2023-04-26T01:20:02;102330.88;;;1.50;100.00
18900;BME280;9582;52.018;6.306;2023-04-26T01:22:33;102338.56;;;1.47;100.00
18900;BME280;9582;52.018;6.306;2023-04-26T01:25:00;102333.41;;;1.47;100.00
18900;BME280;9582;52.018;6.306;2023-04-26T01:27:27;102341.88;;;1.40;100.00
18900;BME280;9582;52.018;6.306;2023-04-26T01:29:54;102331.53;;;1.37;100.00
18900;BME280;9582;52.018;6.306;2023-04-26T01:32:22;102331.56;;;1.38;100.00
18900;BME280;9582;52.018;6.306;2023-04-26T01:34:48;102325.44;;;1.33;100.00
18900;BME280;9582;52.018;6.306;2023-04-26T01:37:17;102323.75;;;1.34;100.00
18900;BME280;9582;52.018;6.306;2023-04-26T01:39:45;102324.66;;;1.37;100.00
18900;BME280;9582;52.018;6.306;2023-04-26T01:42:11;102314.41;;;1.40;100.00
18900;BME280;9582;52.018;6.306;2023-04-26T01:44:38;102300.69;;;1.43;100.00
18900;BME280;9582;52.018;6.306;2023-04-26T01:47:04;102307.56;;;1.41;100.00
18900;BME280;9582;52.018;6.306;2023-04-26T01:49:31;102296.22;;;1.33;100.00
18900;BME280;9582;52.018;6.306;2023-04-26T01:51:57;102299.50;;;1.21;100.00
18900;BME280;9582;52.018;6.306;2023-04-26T01:54:24;102293.38;;;1.16;100.00
18900;BME280;9582;52.018;6.306;2023-04-26T01:56:53;102293.41;;;1.17;100.00
18900;BME280;9582;52.018;6.306;2023-04-26T01:59:19;102283.22;;;1.25;100.00
18900;BME280;9582;52.018;6.306;2023-04-26T02:01:46;102286.66;;;1.26;100.00
18900;BME280;9582;52.018;6.306;2023-04-26T02:04:12;102291.75;;;1.21;100.00
18900;BME280;9582;52.018;6.306;2023-04-26T02:06:39;102291.72;;;1.20;100.00
18900;BME280;9582;52.018;6.306;2023-04-26T02:09:06;102250.44;;;1.16;100.00
18900;BME280;9582;52.018;6.306;2023-04-26T02:11:33;102246.13;;;1.14;100.00
18900;BME280;9582;52.018;6.306;2023-04-26T02:14:01;102250.34;;;1.10;100.00
18900;BME280;9582;52.018;6.306;2023-04-26T02:16:28;102245.13;;;1.04;100.00
18900;BME280;9582;52.018;6.306;2023-04-26T02:18:54;102249.28;;;0.99;100.00
18900;BME280;9582;52.018;6.306;2023-04-26T02:21:21;102247.53;;;0.95;100.00
18900;BME280;9582;52.018;6.306;2023-04-26T02:23:47;102244.03;;;0.92;100.00
18900;BME280;9582;52.018;6.306;2023-04-26T02:26:14;102248.25;;;0.88;100.00
18900;BME280;9582;52.018;6.306;2023-04-26T02:28:42;102244.91;;;0.92;100.00
18900;BME280;9582;52.018;6.306;2023-04-26T02:31:10;102243.97;;;0.89;100.00
18900;BME280;9582;52.018;6.306;2023-04-26T02:33:36;102246.53;;;0.87;100.00
18900;BME280;9582;52.018;6.306;2023-04-26T02:36:03;102242.25;;;0.89;100.00
18900;BME280;9582;52.018;6.306;2023-04-26T02:38:32;102248.31;;;0.91;100.00
18900;BME280;9582;52.018;6.306;2023-04-26T02:40:59;102243.16;;;0.91;100.00
18900;BME280;9582;52.018;6.306;2023-04-26T02:43:25;102258.50;;;0.85;100.00
18900;BME280;9582;52.018;6.306;2023-04-26T02:45:53;102244.47;;;0.70;100.00
18900;BME280;9582;52.018;6.306;2023-04-26T02:48:24;102248.56;;;0.58;100.00
18900;BME280;9582;52.018;6.306;2023-04-26T02:50:50;102245.94;;;0.57;100.00
18900;BME280;9582;52.018;6.306;2023-04-26T02:53:17;102238.28;;;0.60;100.00
18900;BME280;9582;52.018;6.306;2023-04-26T02:55:43;102245.19;;;0.63;100.00
18900;BME280;9582;52.018;6.306;2023-04-26T02:58:10;102234.19;;;0.71;100.00
18900;BME280;9582;52.018;6.306;2023-04-26T03:00:37;102243.66;;;0.72;100.00
18900;BME280;9582;52.018;6.306;2023-04-26T03:03:04;102233.13;;;0.58;100.00
18900;BME280;9582;52.018;6.306;2023-04-26T03:05:31;102237.41;;;0.58;100.00
18900;BME280;9582;52.018;6.306;2023-04-26T03:07:58;102232.38;;;0.64;100.00
18900;BME280;9582;52.018;6.306;2023-04-26T03:10:25;102238.47;;;0.71;100.00
18900;BME280;9582;52.018;6.306;2023-04-26T03:12:51;102231.56;;;0.68;100.00
18900;BME280;9582;52.018;6.306;2023-04-26T03:15:18;102234.78;;;0.56;100.00
18900;BME280;9582;52.018;6.306;2023-04-26T03:17:45;102229.44;;;0.46;100.00
18900;BME280;9582;52.018;6.306;2023-04-26T03:20:11;102229.38;;;0.43;100.00
18900;BME280;9582;52.018;6.306;2023-04-26T03:22:39;102231.06;;;0.39;100.00
18900;BME280;9582;52.018;6.306;2023-04-26T03:25:07;102233.31;;;0.24;100.00
18900;BME280;9582;52.018;6.306;2023-04-26T03:27:33;102228.53;;;0.00;100.00
18900;BME280;9582;52.018;6.306;2023-04-26T03:30:00;102230.97;;;-0.07;100.00
18900;BME280;9582;52.018;6.306;2023-04-26T03:32:28;102223.38;;;0.00;100.00
18900;BME280;9582;52.018;6.306;2023-04-26T03:34:55;102210.78;;;0.13;100.00
18900;BME280;9582;52.018;6.306;2023-04-26T03:37:23;102202.41;;;0.23;100.00
18900;BME280;9582;52.018;6.306;2023-04-26T03:39:57;102204.34;;;0.33;100.00
18900;BME280;9582;52.018;6.306;2023-04-26T03:42:24;102194.91;;;0.33;100.00
18900;BME280;9582;52.018;6.306;2023-04-26T03:44:51;102202.59;;;0.32;100.00
18900;BME280;9582;52.018;6.306;2023-04-26T03:47:17;102199.06;;;0.27;100.00
18900;BME280;9582;52.018;6.306;2023-04-26T03:49:44;102186.19;;;0.25;100.00
18900;BME280;9582;52.018;6.306;2023-04-26T03:52:10;102186.22;;;0.28;100.00
18900;BME280;9582;52.018;6.306;2023-04-26T03:54:37;102190.59;;;0.32;100.00
18900;BME280;9582;52.018;6.306;2023-04-26T03:57:05;102187.09;;;0.29;100.00
18900;BME280;9582;52.018;6.306;2023-04-26T03:59:31;102184.50;;;0.27;100.00
18900;BME280;9582;52.018;6.306;2023-04-26T04:01:58;102180.22;;;0.28;100.00
18900;BME280;9582;52.018;6.306;2023-04-26T04:04:25;102188.03;;;0.32;100.00
18900;BME280;9582;52.018;6.306;2023-04-26T04:06:52;102176.03;;;0.34;100.00
18900;BME280;9582;52.018;6.306;2023-04-26T04:09:19;102179.44;;;0.32;100.00
18900;BME280;9582;52.018;6.306;2023-04-26T04:11:46;102181.94;;;0.29;100.00
18900;BME280;9582;52.018;6.306;2023-04-26T04:14:14;102180.22;;;0.28;100.00
18900;BME280;9582;52.018;6.306;2023-04-26T04:16:41;102179.34;;;0.27;100.00
18900;BME280;9582;52.018;6.306;2023-04-26T04:19:07;102178.44;;;0.24;100.00
18900;BME280;9582;52.018;6.306;2023-04-26T04:21:34;102177.59;;;0.25;100.00
18900;BME280;9582;52.018;6.306;2023-04-26T04:24:02;102173.34;;;0.27;100.00
18900;BME280;9582;52.018;6.306;2023-04-26T04:26:29;102181.06;;;0.27;100.00
18900;BME280;9582;52.018;6.306;2023-04-26T04:28:56;102186.22;;;0.28;100.00
18900;BME280;9582;52.018;6.306;2023-04-26T04:31:26;102181.19;;;0.33;100.00
18900;BME280;9582;52.018;6.306;2023-04-26T04:33:52;102183.06;;;0.41;100.00
18900;BME280;9582;52.018;6.306;2023-04-26T04:36:19;102189.19;;;0.48;100.00
18900;BME280;9582;52.018;6.306;2023-04-26T04:38:45;102189.31;;;0.55;100.00
18900;BME280;9582;52.018;6.306;2023-04-26T04:41:14;102179.97;;;0.61;100.00
18900;BME280;9582;52.018;6.306;2023-04-26T04:43:41;102178.38;;;0.69;100.00
18900;BME280;9582;52.018;6.306;2023-04-26T04:46:07;102177.72;;;0.79;100.00
18900;BME280;9582;52.018;6.306;2023-04-26T04:48:35;102172.69;;;0.86;100.00
18900;BME280;9582;52.018;6.306;2023-04-26T04:51:03;102173.72;;;0.96;100.00
18900;BME280;9582;52.018;6.306;2023-04-26T04:53:30;102170.38;;;1.03;100.00
18900;BME280;9582;52.018;6.306;2023-04-26T04:55:57;102181.66;;;1.11;100.00
18900;BME280;9582;52.018;6.306;2023-04-26T04:58:24;102174.91;;;1.17;100.00
18900;BME280;9582;52.018;6.306;2023-04-26T05:00:50;102180.16;;;1.24;100.00
18900;BME280;9582;52.018;6.306;2023-04-26T05:03:23;102173.34;;;1.29;100.00
18900;BME280;9582;52.018;6.306;2023-04-26T05:05:51;102177.72;;;1.34;100.00
18900;BME280;9582;52.018;6.306;2023-04-26T05:08:18;102182.09;;;1.40;100.00
18900;BME280;9582;52.018;6.306;2023-04-26T05:10:44;102185.59;;;1.45;100.00
18900;BME280;9582;52.018;6.306;2023-04-26T05:13:11;102184.03;;;1.56;100.00
18900;BME280;9582;52.018;6.306;2023-04-26T05:15:38;102179.88;;;1.67;100.00
18900;BME280;9582;52.018;6.306;2023-04-26T05:18:04;102175.69;;;1.75;100.00
18900;BME280;9582;52.018;6.306;2023-04-26T05:20:31;102186.13;;;1.84;100.00
18900;BME280;9582;52.018;6.306;2023-04-26T05:22:59;102184.56;;;1.95;100.00
18900;BME280;9582;52.018;6.306;2023-04-26T05:25:26;102178.03;;;2.24;100.00
18900;BME280;9582;52.018;6.306;2023-04-26T05:27:58;102173.50;;;2.94;100.00
18900;BME280;9582;52.018;6.306;2023-04-26T05:30:56;102178.22;;;3.48;100.00
18900;BME280;9582;52.018;6.306;2023-04-26T05:33:28;102183.47;;;3.65;100.00
18900;BME280;9582;52.018;6.306;2023-04-26T05:36:08;102201.53;;;3.57;100.00
18900;BME280;9582;52.018;6.306;2023-04-26T05:38:36;102204.91;;;3.44;100.00
18900;BME280;9582;52.018;6.306;2023-04-26T05:41:03;102222.22;;;3.53;100.00
18900;BME280;9582;52.018;6.306;2023-04-26T05:43:29;102224.09;;;3.81;100.00
18900;BME280;9582;52.018;6.306;2023-04-26T05:45:56;102233.84;;;4.41;100.00
18900;BME280;9582;52.018;6.306;2023-04-26T05:48:24;102246.91;;;4.82;100.00
18900;BME280;9582;52.018;6.306;2023-04-26T05:50:51;102258.16;;;5.17;100.00
18900;BME280;9582;52.018;6.306;2023-04-26T05:53:19;102273.69;;;5.56;100.00
18900;BME280;9582;52.018;6.306;2023-04-26T05:55:47;102297.03;;;5.77;100.00
18900;BME280;9582;52.018;6.306;2023-04-26T05:58:14;102320.38;;;5.96;100.00
18900;BME280;9582;52.018;6.306;2023-04-26T06:00:41;102342.88;;;6.07;100.00
18900;BME280;9582;52.018;6.306;2023-04-26T06:03:07;102351.50;;;6.26;100.00
18900;BME280;9582;52.018;6.306;2023-04-26T06:05:35;102381.78;;;6.36;100.00
18900;BME280;9582;52.018;6.306;2023-04-26T06:08:03;102406.06;;;6.26;100.00
18900;BME280;9582;52.018;6.306;2023-04-26T06:10:30;102417.28;;;6.28;100.00
18900;BME280;9582;52.018;6.306;2023-04-26T06:12:58;102432.88;;;6.46;100.00
18900;BME280;9582;52.018;6.306;2023-04-26T06:15:26;102442.28;;;6.79;100.00
18900;BME280;9582;52.018;6.306;2023-04-26T06:17:53;102439.69;;;6.77;100.00
18900;BME280;9582;52.018;6.306;2023-04-26T06:20:20;102442.28;;;6.80;100.00
18900;BME280;9582;52.018;6.306;2023-04-26T06:22:47;102444.81;;;7.02;100.00
18900;BME280;9582;52.018;6.306;2023-04-26T06:25:14;102429.06;;;7.29;100.00
18900;BME280;9582;52.018;6.306;2023-04-26T06:27:41;102422.84;;;7.48;100.00
18900;BME280;9582;52.018;6.306;2023-04-26T06:30:10;102408.03;;;7.64;100.00
18900;BME280;9582;52.018;6.306;2023-04-26T06:32:40;102382.84;;;7.64;100.00
18900;BME280;9582;52.018;6.306;2023-04-26T06:35:08;102349.13;;;7.50;100.00
18900;BME280;9582;52.018;6.306;2023-04-26T06:37:34;102304.06;;;7.44;100.00
18900;BME280;9582;52.018;6.306;2023-04-26T06:40:01;102284.81;;;7.60;100.00
18900;BME280;9582;52.018;6.306;2023-04-26T06:42:27;102270.88;;;7.66;100.00
18900;BME280;9582;52.018;6.306;2023-04-26T06:45:14;102247.44;;;7.67;100.00
18900;BME280;9582;52.018;6.306;2023-04-26T06:47:42;102233.72;;;7.50;100.00
18900;BME280;9582;52.018;6.306;2023-04-26T06:50:10;102216.09;;;7.76;100.00
18900;BME280;9582;52.018;6.306;2023-04-26T06:52:36;102198.88;;;7.63;100.00
18900;BME280;9582;52.018;6.306;2023-04-26T06:55:03;102183.06;;;7.81;100.00
18900;BME280;9582;52.018;6.306;2023-04-26T06:57:30;102182.94;;;7.90;100.00
18900;BME280;9582;52.018;6.306;2023-04-26T06:59:56;102170.75;;;7.95;100.00
18900;BME280;9582;52.018;6.306;2023-04-26T07:02:24;102174.06;;;8.06;100.00
18900;BME280;9582;52.018;6.306;2023-04-26T07:04:51;102174.84;;;8.13;100.00
18900;BME280;9582;52.018;6.306;2023-04-26T07:07:17;102163.69;;;8.03;100.00
18900;BME280;9582;52.018;6.306;2023-04-26T07:09:44;102162.94;;;7.94;100.00
18900;BME280;9582;52.018;6.306;2023-04-26T07:12:10;102155.25;;;7.83;100.00
18900;BME280;9582;52.018;6.306;2023-04-26T07:14:37;102147.78;;;7.54;100.00
18900;BME280;9582;52.018;6.306;2023-04-26T07:17:04;102147.03;;;7.43;100.00
18900;BME280;9582;52.018;6.306;2023-04-26T07:19:32;102147.97;;;7.38;100.00
18900;BME280;9582;52.018;6.306;2023-04-26T07:21:59;102138.38;;;7.44;100.00
18900;BME280;9582;52.018;6.306;2023-04-26T07:24:26;102140.00;;;7.53;100.00
18900;BME280;9582;52.018;6.306;2023-04-26T07:26:52;102139.94;;;7.59;100.00
18900;BME280;9582;52.018;6.306;2023-04-26T07:29:19;102141.63;;;7.60;100.00
18900;BME280;9582;52.018;6.306;2023-04-26T07:31:45;102138.25;;;7.52;100.00
18900;BME280;9582;52.018;6.306;2023-04-26T07:34:12;102128.75;;;7.49;100.00
18900;BME280;9582;52.018;6.306;2023-04-26T07:36:40;102117.38;;;7.56;100.00
18900;BME280;9582;52.018;6.306;2023-04-26T07:39:07;102117.97;;;7.80;100.00
18900;BME280;9582;52.018;6.306;2023-04-26T07:41:34;102118.56;;;8.00;100.00
18900;BME280;9582;52.018;6.306;2023-04-26T07:44:01;102097.53;;;8.13;100.00
18900;BME280;9582;52.018;6.306;2023-04-26T07:46:28;102093.97;;;8.19;100.00
18900;BME280;9582;52.018;6.306;2023-04-26T07:48:54;102082.44;;;8.38;100.00
18900;BME280;9582;52.018;6.306;2023-04-26T07:51:21;102066.69;;;8.44;100.00
18900;BME280;9582;52.018;6.306;2023-04-26T07:53:49;102064.25;;;8.34;100.00
18900;BME280;9582;52.018;6.306;2023-04-26T07:56:15;102047.94;;;8.20;100.00
18900;BME280;9582;52.018;6.306;2023-04-26T07:58:42;102052.50;;;8.05;100.00
18900;BME280;9582;52.018;6.306;2023-04-26T08:01:08;102037.03;;;7.93;100.00
18900;BME280;9582;52.018;6.306;2023-04-26T08:03:35;102034.44;;;7.93;100.00
18900;BME280;9582;52.018;6.306;2023-04-26T08:06:02;102012.69;;;7.97;100.00
18900;BME280;9582;52.018;6.306;2023-04-26T08:08:29;102007.41;;;8.02;100.00
18900;BME280;9582;52.018;6.306;2023-04-26T08:10:58;102003.88;;;8.04;100.00
18900;BME280;9582;52.018;6.306;2023-04-26T08:13:25;101990.03;;;8.02;100.00
18900;BME280;9582;52.018;6.306;2023-04-26T08:15:51;101972.72;;;8.01;100.00
18900;BME280;9582;52.018;6.306;2023-04-26T08:18:18;101952.78;;;7.97;100.00
18900;BME280;9582;52.018;6.306;2023-04-26T08:20:44;101943.38;;;7.89;100.00
18900;BME280;9582;52.018;6.306;2023-04-26T08:23:11;101920.03;;;7.84;100.00
18900;BME280;9582;52.018;6.306;2023-04-26T08:25:38;101908.69;;;7.85;100.00
18900;BME280;9582;52.018;6.306;2023-04-26T08:28:06;101914.81;;;7.84;100.00
18900;BME280;9582;52.018;6.306;2023-04-26T08:30:33;101906.81;;;7.93;100.00
18900;BME280;9582;52.018;6.306;2023-04-26T08:32:59;101896.16;;;8.08;100.00
18900;BME280;9582;52.018;6.306;2023-04-26T08:35:26;101899.38;;;8.23;100.00
18900;BME280;9582;52.018;6.306;2023-04-26T08:37:52;101891.09;;;8.50;100.00
18900;BME280;9582;52.018;6.306;2023-04-26T08:40:21;101886.28;;;8.73;100.00
18900;BME280;9582;52.018;6.306;2023-04-26T08:42:49;101861.94;;;8.74;100.00
18900;BME280;9582;52.018;6.306;2023-04-26T08:45:18;101854.34;;;8.62;100.00
18900;BME280;9582;52.018;6.306;2023-04-26T08:47:47;101850.28;;;8.49;100.00
18900;BME280;9582;52.018;6.306;2023-04-26T08:50:17;101837.53;;;8.35;100.00
18900;BME280;9582;52.018;6.306;2023-04-26T08:52:47;101838.19;;;8.45;100.00
18900;BME280;9582;52.018;6.306;2023-04-26T08:55:14;101838.59;;;8.66;100.00
18900;BME280;9582;52.018;6.306;2023-04-26T08:57:41;101837.06;;;8.98;100.00
18900;BME280;9582;52.018;6.306;2023-04-26T09:00:09;101827.91;;;9.18;100.00
18900;BME280;9582;52.018;6.306;2023-04-26T09:02:40;101817.97;;;9.34;100.00
18900;BME280;9582;52.018;6.306;2023-04-26T09:05:08;101801.19;;;9.44;100.00
18900;BME280;9582;52.018;6.306;2023-04-26T09:07:39;101801.97;;;9.48;100.00
18900;BME280;9582;52.018;6.306;2023-04-26T09:10:06;101778.03;;;9.31;100.00
18900;BME280;9582;52.018;6.306;2023-04-26T09:12:34;101774.50;;;9.33;100.00
18900;BME280;9582;52.018;6.306;2023-04-26T09:15:00;101775.91;;;9.46;100.00
18900;BME280;9582;52.018;6.306;2023-04-26T09:17:30;101756.16;;;9.36;100.00
18900;BME280;9582;52.018;6.306;2023-04-26T09:19:58;101739.91;;;9.25;100.00
18900;BME280;9582;52.018;6.306;2023-04-26T09:22:29;101739.75;;;9.31;100.00
18900;BME280;9582;52.018;6.306;2023-04-26T09:24:56;101740.88;;;9.55;100.00
18900;BME280;9582;52.018;6.306;2023-04-26T09:27:31;101733.06;;;9.87;100.00
18900;BME280;9582;52.018;6.306;2023-04-26T09:30:03;101719.34;;;10.10;100.00
18900;BME280;9582;52.018;6.306;2023-04-26T09:32:43;101717.22;;;9.93;100.00
18900;BME280;9582;52.018;6.306;2023-04-26T09:35:21;101697.66;;;9.75;100.00
18900;BME280;9582;52.018;6.306;2023-04-26T09:37:51;101684.25;;;9.57;100.00
18900;BME280;9582;52.018;6.306;2023-04-26T09:40:20;101683.09;;;9.35;100.00
18900;BME280;9582;52.018;6.306;2023-04-26T09:42:55;101680.34;;;9.07;100.00
18900;BME280;9582;52.018;6.306;2023-04-26T09:45:23;101683.13;;;8.99;100.00
18900;BME280;9582;52.018;6.306;2023-04-26T09:47:49;101688.22;;;9.05;100.00
18900;BME280;9582;52.018;6.306;2023-04-26T09:50:26;101692.50;;;9.42;100.00
18900;BME280;9582;52.018;6.306;2023-04-26T09:52:53;101687.44;;;9.68;100.00
18900;BME280;9582;52.018;6.306;2023-04-26T09:55:25;101691.22;;;10.19;100.00
18900;BME280;9582;52.018;6.306;2023-04-26T09:57:51;101683.09;;;10.28;100.00
18900;BME280;9582;52.018;6.306;2023-04-26T10:00:18;101673.94;;;10.14;100.00
18900;BME280;9582;52.018;6.306;2023-04-26T10:02:46;101678.84;;;9.94;100.00
18900;BME280;9582;52.018;6.306;2023-04-26T10:05:12;101676.81;;;9.74;100.00
18900;BME280;9582;52.018;6.306;2023-04-26T10:07:40;101676.25;;;9.63;100.00
18900;BME280;9582;52.018;6.306;2023-04-26T10:10:08;101670.63;;;9.46;100.00
18900;BME280;9582;52.018;6.306;2023-04-26T10:12:35;101672.97;;;9.55;100.00
18900;BME280;9582;52.018;6.306;2023-04-26T10:15:03;101671.47;;;9.46;100.00
18900;BME280;9582;52.018;6.306;2023-04-26T10:17:31;101671.56;;;9.43;100.00
18900;BME280;9582;52.018;6.306;2023-04-26T10:19:58;101671.63;;;9.40;100.00
18900;BME280;9582;52.018;6.306;2023-04-26T10:22:28;101665.69;;;9.35;100.00
18900;BME280;9582;52.018;6.306;2023-04-26T10:24:59;101663.00;;;9.38;100.00
18900;BME280;9582;52.018;6.306;2023-04-26T10:27:47;101661.28;;;9.37;100.00
18900;BME280;9582;52.018;6.306;2023-04-26T10:30:14;101656.84;;;9.41;100.00
18900;BME280;9582;52.018;6.306;2023-04-26T10:33:14;101649.72;;;9.46;100.00
18900;BME280;9582;52.018;6.306;2023-04-26T10:36:10;101651.63;;;9.41;100.00
18900;BME280;9582;52.018;6.306;2023-04-26T10:38:38;101649.72;;;9.46;100.00
18900;BME280;9582;52.018;6.306;2023-04-26T10:41:32;101650.59;;;9.77;100.00
18900;BME280;9582;52.018;6.306;2023-04-26T10:44:36;101637.06;;;10.24;100.00
18900;BME280;9582;52.018;6.306;2023-04-26T10:47:04;101643.38;;;10.17;100.00
18900;BME280;9582;52.018;6.306;2023-04-26T10:49:42;101636.63;;;10.09;100.00
18900;BME280;9582;52.018;6.306;2023-04-26T10:52:10;101629.00;;;10.01;100.00
18900;BME280;9582;52.018;6.306;2023-04-26T10:54:45;101623.78;;;10.01;100.00
18900;BME280;9582;52.018;6.306;2023-04-26T10:57:14;101628.94;;;10.03;100.00
18900;BME280;9582;52.018;6.306;2023-04-26T11:02:44;101626.72;;;9.91;100.00
18900;BME280;9582;52.018;6.306;2023-04-26T11:05:32;101614.81;;;9.80;100.00
18900;BME280;9582;52.018;6.306;2023-04-26T11:08:05;101623.69;;;9.75;100.00
18900;BME280;9582;52.018;6.306;2023-04-26T11:10:33;101617.91;;;9.64;100.00
18900;BME280;9582;52.018;6.306;2023-04-26T11:13:03;101617.97;;;9.30;100.00
18900;BME280;9582;52.018;6.306;2023-04-26T11:15:30;101618.66;;;9.04;100.00
18900;BME280;9582;52.018;6.306;2023-04-26T11:17:57;101627.13;;;8.79;100.00
18900;BME280;9582;52.018;6.306;2023-04-26T11:20:28;101624.25;;;8.54;100.00
18900;BME280;9582;52.018;6.306;2023-04-26T11:22:55;101628.06;;;8.41;100.00
18900;BME280;9582;52.018;6.306;2023-04-26T11:25:24;101636.13;;;8.29;100.00
18900;BME280;9582;52.018;6.306;2023-04-26T11:27:50;101639.78;;;8.20;100.00
18900;BME280;9582;52.018;6.306;2023-04-26T11:30:18;101645.97;;;8.14;100.00
18900;BME280;9582;52.018;6.306;2023-04-26T11:32:45;101639.97;;;8.11;100.00
18900;BME280;9582;52.018;6.306;2023-04-26T11:35:11;101646.91;;;8.10;100.00
18900;BME280;9582;52.018;6.306;2023-04-26T11:37:38;101646.06;;;8.10;100.00
18900;BME280;9582;52.018;6.306;2023-04-26T11:40:08;101640.88;;;8.08;100.00
18900;BME280;9582;52.018;6.306;2023-04-26T11:42:35;101635.69;;;8.08;100.00
18900;BME280;9582;52.018;6.306;2023-04-26T11:45:02;101641.72;;;8.10;100.00
18900;BME280;9582;52.018;6.306;2023-04-26T11:47:33;101633.81;;;8.15;100.00
18900;BME280;9582;52.018;6.306;2023-04-26T11:50:00;101633.63;;;8.23;100.00
18900;BME280;9582;52.018;6.306;2023-04-26T11:52:27;101630.88;;;8.32;100.00
18900;BME280;9582;52.018;6.306;2023-04-26T11:55:00;101625.38;;;8.44;100.00
18900;BME280;9582;52.018;6.306;2023-04-26T11:57:30;101627.66;;;8.57;100.00
18900;BME280;9582;52.018;6.306;2023-04-26T12:00:06;101626.31;;;8.77;100.00
18900;BME280;9582;52.018;6.306;2023-04-26T12:02:36;101633.78;;;8.90;100.00
18900;BME280;9582;52.018;6.306;2023-04-26T12:05:03;101628.22;;;9.05;100.00
18900;BME280;9582;52.018;6.306;2023-04-26T12:07:33;101623.00;;;9.05;100.00
18900;BME280;9582;52.018;6.306;2023-04-26T12:10:13;101621.69;;;9.21;100.00
18900;BME280;9582;52.018;6.306;2023-04-26T12:12:43;101615.94;;;9.41;100.00
18900;BME280;9582;52.018;6.306;2023-04-26T12:15:10;101609.34;;;9.59;100.00
18900;BME280;9582;52.018;6.306;2023-04-26T12:17:38;101613.47;;;9.67;100.00
18900;BME280;9582;52.018;6.306;2023-04-26T12:20:08;101610.78;;;9.69;100.00
18900;BME280;9582;52.018;6.306;2023-04-26T12:22:35;101604.53;;;9.74;100.00
18900;BME280;9582;52.018;6.306;2023-04-26T12:25:05;101598.34;;;9.78;100.00
18900;BME280;9582;52.018;6.306;2023-04-26T12:27:32;101595.22;;;9.95;100.00
18900;BME280;9582;52.018;6.306;2023-04-26T12:29:59;101579.03;;;10.12;100.00
18900;BME280;9582;52.018;6.306;2023-04-26T12:32:25;101578.53;;;10.28;100.00
18900;BME280;9582;52.018;6.306;2023-04-26T12:34:53;101579.84;;;10.41;100.00
18900;BME280;9582;52.018;6.306;2023-04-26T12:37:20;101576.75;;;10.57;100.00
18900;BME280;9582;52.018;6.306;2023-04-26T12:39:46;101573.34;;;10.55;100.00
18900;BME280;9582;52.018;6.306;2023-04-26T12:42:13;101569.38;;;10.43;100.00
18900;BME280;9582;52.018;6.306;2023-04-26T12:44:39;101570.31;;;10.40;100.00
18900;BME280;9582;52.018;6.306;2023-04-26T12:47:06;101558.16;;;10.39;100.00
18900;BME280;9582;52.018;6.306;2023-04-26T12:49:32;101551.94;;;10.43;100.00
18900;BME280;9582;52.018;6.306;2023-04-26T12:52:00;101548.53;;;10.40;100.00
18900;BME280;9582;52.018;6.306;2023-04-26T12:54:27;101548.72;;;10.35;100.00
18900;BME280;9582;52.018;6.306;2023-04-26T12:56:54;101542.56;;;10.36;100.00
18900;BME280;9582;52.018;6.306;2023-04-26T12:59:20;101538.78;;;10.45;100.00
18900;BME280;9582;52.018;6.306;2023-04-26T13:01:47;101544.78;;;10.49;100.00
18900;BME280;9582;52.018;6.306;2023-04-26T13:04:13;101514.63;;;10.38;100.00
18900;BME280;9582;52.018;6.306;2023-04-26T13:06:40;101502.66;;;10.31;100.00
18900;BME280;9582;52.018;6.306;2023-04-26T13:09:08;101509.13;;;10.20;100.00